Edgar B Speer — WQZ9670 — position and weather

sailwx.info

Track history (hours):
 
Tides and Currents Weather Stations Pressure Air Temp Water Temp Dewpoint Dewpoint Depression Visibility Wind Speed Wind Dir Waves Ship Positions

Edgar B Speer

Owner: Great Lakes Fleet, Inc, DULUTH, MN. More information available from US FCC via Universal Licensing System and Coast Guard Vessel Documentation Center.

Last reported at 2014-Dec-20 00:31 UTC. Time now 2014-Dec-20 14:27 UTC.
Position N 44°55' W 086°25'.

Length 306 m; draft 7.3 m.

Type: Ship (hazmat cat A). MMSI: 366971330.

Date/timePositionNaut miles runAvg speedWind from/ knotsBaromVisibWave heightAir tempDewpointWater temp
2014-Dec-20 00:31N 44°55' W 086°25'2512.8
2014-Dec-19 22:33N 45°19' W 086°15'1312.8
2014-Dec-19 21:33N 45°31' W 086°10'1212.1
2014-Dec-19 20:33N 45°42' W 086°03'1312.8
2014-Dec-19 19:33N 45°49' W 085°47'1212.5
2014-Dec-19 18:33N 45°54' W 085°31'1212.4
2014-Dec-19 17:33N 45°52' W 085°13'1312.6
2014-Dec-19 16:33N 45°50' W 084°55'1211.9
2014-Dec-19 15:33N 45°50' W 084°38'1212.0
2014-Dec-19 14:33N 45°53' W 084°21'1312.7
2014-Dec-19 13:33N 45°54' W 084°03'8 8.1
2014-Dec-19 12:33N 45°59' W 083°53'10 9.4
2014-Dec-19 11:32N 46°07' W 084°01'10 8.7
2014-Dec-19 10:25N 46°14' W 084°10'  
2014-Dec-15 23:33N 45°53' W 084°02'1312.9
2014-Dec-15 22:33N 45°51' W 084°20'1312.7
2014-Dec-15 21:33N 45°50' W 084°38'1313.0
2014-Dec-15 20:33N 45°50' W 084°57'9 9.5
2014-Dec-15 19:33N 45°45' W 085°09'1413.6
2014-Dec-15 18:33N 45°34' W 085°21'1413.7
2014-Dec-15 17:33N 45°23' W 085°33'1413.6
2014-Dec-15 16:33N 45°13' W 085°44'1413.5
2014-Dec-15 15:33N 45°02' W 085°55'1313.4
2014-Dec-15 14:33N 44°55' W 086°12'  
2014-Dec-13 10:04N 44°39' W 086°31'612.4
2014-Dec-13 09:33N 44°45' W 086°29'1212.5
2014-Dec-13 08:33N 44°57' W 086°24'1612.4
2014-Dec-13 07:18N 45°12' W 086°18'912.5
2014-Dec-13 06:33N 45°21' W 086°14'1312.6
2014-Dec-13 05:33N 45°33' W 086°10'1211.6
2014-Dec-13 04:33N 45°43' W 086°01'1312.6
2014-Dec-13 03:33N 45°50' W 085°45'1212.1
2014-Dec-13 02:33N 45°54' W 085°29'1212.4
2014-Dec-13 01:33N 45°52' W 085°11'1212.5
2014-Dec-13 00:33N 45°50' W 084°54'1211.5
2014-Dec-12 23:33N 45°50' W 084°37'1212.0
2014-Dec-12 22:33N 45°53' W 084°20'1212.3
2014-Dec-12 21:33N 45°54' W 084°03'26 6.5
2014-Dec-12 17:33N 46°19' W 084°13'13 3.3
2014-Dec-12 13:31N 46°30' W 084°25'12 8.2
2014-Dec-12 12:03N 46°34' W 084°42'612.7
2014-Dec-12 11:33N 46°39' W 084°47'1612.3
2014-Dec-12 10:15N 46°50' W 085°03'1012.8
2014-Dec-12 09:28N 46°55' W 085°17'2512.8
2014-Dec-12 07:29N 47°05' W 085°51'  
Track history (hours):
 
Tides and Currents Weather Stations Pressure Air Temp Water Temp Dewpoint Dewpoint Depression Visibility Wind Speed Wind Dir Waves Ship Positions

Edgar B Speer

Owner: Great Lakes Fleet, Inc, DULUTH, MN. More information available from US FCC via Universal Licensing System and Coast Guard Vessel Documentation Center.

Last reported at 2014-Dec-20 00:31 UTC. Time now 2014-Dec-20 14:27 UTC.
Position N 44°55' W 086°25'.

Length 306 m; draft 7.3 m.

Type: Ship (hazmat cat A). MMSI: 366971330.

Date/timePositionNaut miles runAvg speedWind from/ knotsBaromVisibWave heightAir tempDewpointWater temp
2014-Dec-20 00:31N 44°55' W 086°25'2512.8
2014-Dec-19 22:33N 45°19' W 086°15'1312.8
2014-Dec-19 21:33N 45°31' W 086°10'1212.1
2014-Dec-19 20:33N 45°42' W 086°03'1312.8
2014-Dec-19 19:33N 45°49' W 085°47'1212.5
2014-Dec-19 18:33N 45°54' W 085°31'1212.4
2014-Dec-19 17:33N 45°52' W 085°13'1312.6
2014-Dec-19 16:33N 45°50' W 084°55'1211.9
2014-Dec-19 15:33N 45°50' W 084°38'1212.0
2014-Dec-19 14:33N 45°53' W 084°21'1312.7
2014-Dec-19 13:33N 45°54' W 084°03'8 8.1
2014-Dec-19 12:33N 45°59' W 083°53'10 9.4
2014-Dec-19 11:32N 46°07' W 084°01'10 8.7
2014-Dec-19 10:25N 46°14' W 084°10'  
2014-Dec-15 23:33N 45°53' W 084°02'1312.9
2014-Dec-15 22:33N 45°51' W 084°20'1312.7
2014-Dec-15 21:33N 45°50' W 084°38'1313.0
2014-Dec-15 20:33N 45°50' W 084°57'9 9.5
2014-Dec-15 19:33N 45°45' W 085°09'1413.6
2014-Dec-15 18:33N 45°34' W 085°21'1413.7
2014-Dec-15 17:33N 45°23' W 085°33'1413.6
2014-Dec-15 16:33N 45°13' W 085°44'1413.5
2014-Dec-15 15:33N 45°02' W 085°55'1313.4
2014-Dec-15 14:33N 44°55' W 086°12'  
2014-Dec-13 10:04N 44°39' W 086°31'612.4
2014-Dec-13 09:33N 44°45' W 086°29'1212.5
2014-Dec-13 08:33N 44°57' W 086°24'1612.4
2014-Dec-13 07:18N 45°12' W 086°18'912.5
2014-Dec-13 06:33N 45°21' W 086°14'1312.6
2014-Dec-13 05:33N 45°33' W 086°10'1211.6
2014-Dec-13 04:33N 45°43' W 086°01'1312.6
2014-Dec-13 03:33N 45°50' W 085°45'1212.1
2014-Dec-13 02:33N 45°54' W 085°29'1212.4
2014-Dec-13 01:33N 45°52' W 085°11'1212.5
2014-Dec-13 00:33N 45°50' W 084°54'1211.5
2014-Dec-12 23:33N 45°50' W 084°37'1212.0
2014-Dec-12 22:33N 45°53' W 084°20'1212.3
2014-Dec-12 21:33N 45°54' W 084°03'26 6.5
2014-Dec-12 17:33N 46°19' W 084°13'13 3.3
2014-Dec-12 13:31N 46°30' W 084°25'12 8.2
2014-Dec-12 12:03N 46°34' W 084°42'612.7
2014-Dec-12 11:33N 46°39' W 084°47'1612.3
2014-Dec-12 10:15N 46°50' W 085°03'1012.8
2014-Dec-12 09:28N 46°55' W 085°17'2512.8
2014-Dec-12 07:29N 47°05' W 085°51'  

Dump ship's entire track history